createdAt,value
2018-12-19T00:04:27.282Z,27.45
2018-12-19T00:09:36.641Z,28.25
2018-12-19T00:14:46.294Z,26.37
2018-12-19T00:19:55.740Z,27.52
2018-12-19T00:25:05.324Z,26.10
2018-12-19T00:30:13.325Z,26.78
2018-12-19T00:35:22.942Z,27.90
2018-12-19T00:40:32.412Z,26.10
2018-12-19T00:45:40.441Z,28.15
2018-12-19T00:50:49.791Z,26.17
2018-12-19T00:55:59.469Z,25.76
2018-12-19T01:01:07.311Z,27.36
2018-12-19T01:06:16.819Z,28.32
2018-12-19T01:11:26.180Z,27.27
2018-12-19T01:16:35.764Z,24.38
2018-12-19T01:21:45.230Z,24.96
2018-12-19T01:26:53.490Z,24.88
2018-12-19T01:32:02.790Z,24.13
2018-12-19T01:37:12.397Z,24.63
2018-12-19T01:42:21.671Z,26.46
2018-12-19T01:47:31.496Z,24.06
2018-12-19T01:52:40.747Z,25.39
2018-12-19T01:57:50.387Z,25.50
2018-12-19T02:02:59.733Z,24.62
2018-12-19T02:08:09.377Z,26.39
2018-12-19T02:13:18.773Z,24.28
2018-12-19T02:18:28.317Z,25.67
2018-12-19T02:23:37.828Z,25.37
2018-12-19T02:28:47.335Z,25.17
2018-12-19T02:33:56.708Z,26.65
2018-12-19T02:39:06.415Z,24.99
2018-12-19T02:44:15.711Z,24.58
2018-12-19T02:49:25.233Z,25.27
2018-12-19T02:54:34.507Z,25.33
2018-12-19T02:59:45.093Z,24.54
2018-12-19T03:04:44.297Z,24.01
2018-12-19T03:09:54.129Z,23.39
2018-12-19T03:15:01.946Z,24.12
2018-12-19T03:20:11.495Z,24.58
2018-12-19T03:25:20.986Z,24.90
2018-12-19T03:30:30.883Z,25.29
2018-12-19T03:35:40.211Z,24.15
2018-12-19T03:40:49.814Z,23.73
2018-12-19T03:45:59.318Z,22.79
2018-12-19T03:51:08.810Z,23.14
2018-12-19T03:56:18.115Z,23.22
2018-12-19T04:01:27.629Z,22.83
2018-12-19T04:06:37.172Z,25.55
2018-12-19T04:11:47.009Z,22.97
2018-12-19T04:16:56.192Z,23.29
2018-12-19T04:22:06.021Z,21.63
2018-12-19T04:27:15.381Z,22.17
2018-12-19T04:32:25.271Z,21.97
2018-12-19T04:37:34.620Z,22.15
2018-12-19T04:42:44.191Z,21.61
2018-12-19T04:47:53.608Z,22.10
2018-12-19T04:53:03.373Z,21.31
2018-12-19T04:58:12.693Z,24.54
2018-12-19T05:03:22.346Z,21.81
2018-12-19T05:08:30.197Z,26.18
2018-12-19T05:13:39.714Z,21.32
2018-12-19T05:18:49.275Z,22.09
2018-12-19T05:23:58.884Z,23.71
2018-12-19T05:25:34.154Z,26.62
2018-12-19T05:30:33.440Z,27.86
2018-12-19T05:35:41.764Z,24.21
2018-12-19T05:40:51.155Z,27.29
2018-12-19T05:46:00.720Z,29.25
2018-12-19T05:51:10.157Z,29.07
2018-12-19T05:56:18.290Z,30.45
2018-12-19T06:01:27.566Z,29.68
2018-12-19T06:06:36.997Z,31.21
2018-12-19T06:11:46.328Z,32.93
2018-12-19T06:16:55.829Z,29.26
2018-12-19T06:22:05.176Z,35.30
2018-12-19T06:27:14.965Z,29.40
2018-12-19T06:32:24.417Z,31.23
2018-12-19T06:37:33.852Z,29.17
2018-12-19T06:42:47.350Z,29.97
2018-12-19T06:47:46.976Z,37.62
2018-12-19T06:52:56.337Z,34.94
2018-12-19T06:58:05.915Z,34.64
2018-12-19T07:03:15.233Z,33.98
2018-12-19T07:08:25.017Z,30.44
2018-12-19T07:13:34.427Z,31.18
2018-12-19T07:18:44.006Z,30.89
2018-12-19T07:23:53.240Z,26.44
2018-12-19T07:29:02.897Z,29.59
2018-12-19T07:34:12.307Z,29.68
2018-12-19T07:39:22.023Z,28.92
2018-12-19T07:44:31.485Z,29.47
2018-12-19T07:49:41.441Z,30.29
2018-12-19T07:54:50.884Z,28.93
2018-12-19T08:00:00.759Z,39.69
2018-12-19T08:05:10.029Z,39.72
2018-12-19T08:10:19.608Z,39.49
2018-12-19T08:15:28.851Z,43.18
2018-12-19T08:20:38.517Z,40.81
2018-12-19T08:25:47.962Z,38.87
2018-12-19T08:30:57.467Z,36.47
2018-12-19T08:36:06.901Z,36.19
2018-12-19T08:41:16.420Z,41.65
2018-12-19T08:46:25.665Z,37.62
2018-12-19T08:51:35.416Z,36.49
2018-12-19T08:56:44.751Z,37.99
2018-12-19T09:01:54.079Z,32.66
2018-12-19T09:07:03.397Z,33.34
2018-12-19T09:12:13.074Z,37.69
2018-12-19T09:17:22.332Z,35.45
2018-12-19T09:22:31.797Z,35.84
2018-12-19T09:27:41.197Z,32.44
2018-12-19T09:32:50.616Z,31.23
2018-12-19T09:37:59.951Z,31.43
2018-12-19T09:43:09.620Z,31.28
2018-12-19T09:48:18.969Z,29.26
2018-12-19T09:53:28.491Z,30.50
2018-12-19T09:58:37.994Z,31.46
2018-12-19T10:03:47.794Z,29.21
2018-12-19T10:08:57.106Z,29.02
2018-12-19T10:14:06.615Z,30.77
2018-12-19T10:19:15.965Z,28.45
2018-12-19T10:24:25.556Z,28.58
2018-12-19T10:29:34.937Z,29.72
2018-12-19T10:34:44.548Z,31.81
2018-12-19T10:39:53.851Z,36.08
2018-12-19T10:45:03.650Z,48.07
2018-12-19T10:50:12.959Z,41.93
2018-12-19T10:55:22.716Z,38.72
2018-12-19T11:00:32.110Z,34.92
2018-12-19T11:05:41.915Z,34.43
2018-12-19T11:10:51.322Z,41.24
2018-12-19T11:16:00.978Z,36.80
2018-12-19T11:21:08.872Z,36.44
2018-12-19T11:26:18.492Z,34.98
2018-12-19T11:31:32.913Z,34.50
2018-12-19T11:36:32.402Z,32.73
2018-12-19T11:41:41.907Z,32.03
2018-12-19T11:46:51.568Z,32.19
2018-12-19T11:52:00.897Z,34.12
2018-12-19T11:57:10.640Z,30.78
2018-12-19T12:02:20.066Z,31.52
2018-12-19T12:07:29.827Z,30.00
2018-12-19T12:12:39.172Z,30.73
2018-12-19T12:17:48.712Z,31.23
2018-12-19T12:22:58.070Z,30.68
2018-12-19T12:28:07.577Z,28.61
2018-12-19T12:33:16.908Z,29.20
2018-12-19T12:38:26.482Z,28.42
2018-12-19T12:43:35.829Z,29.38
2018-12-19T12:48:45.570Z,28.67
2018-12-19T12:53:54.841Z,27.71
2018-12-19T12:59:06.138Z,26.98
2018-12-19T13:04:05.203Z,30.14
2018-12-19T13:09:14.672Z,26.42
2018-12-19T13:14:24.103Z,26.90
2018-12-19T13:19:33.570Z,27.53
2018-12-19T13:24:42.875Z,26.86
2018-12-19T13:29:52.352Z,29.51
2018-12-19T13:35:01.640Z,36.88
2018-12-19T13:40:11.078Z,40.23
2018-12-19T13:45:20.301Z,39.17
2018-12-19T13:50:30.093Z,36.51
2018-12-19T13:55:39.478Z,35.70
2018-12-19T14:00:49.021Z,35.28
2018-12-19T14:05:58.447Z,32.46
2018-12-19T14:11:08.328Z,35.68
2018-12-19T14:16:18.262Z,35.20
2018-12-19T14:21:28.006Z,36.43
2018-12-19T14:26:37.321Z,37.90
2018-12-19T14:31:46.974Z,35.15
2018-12-19T14:37:00.495Z,40.47
2018-12-19T14:41:58.587Z,35.50
2018-12-19T14:47:08.077Z,44.82
2018-12-19T14:52:16.222Z,39.57
2018-12-19T14:57:25.543Z,41.07
2018-12-19T15:02:33.690Z,37.20
2018-12-19T15:07:42.948Z,78.31
2018-12-19T15:12:52.716Z,68.33
2018-12-19T15:18:02.113Z,64.60
2018-12-19T15:23:11.717Z,61.12
2018-12-19T15:28:21.026Z,55.43
2018-12-19T15:33:30.614Z,54.29
2018-12-19T15:38:39.977Z,51.24
2018-12-19T15:43:49.621Z,50.52
2018-12-19T15:48:59.056Z,52.97
2018-12-19T15:54:08.575Z,55.38
2018-12-19T15:59:17.815Z,57.75
2018-12-19T16:04:27.421Z,51.31
2018-12-19T16:09:36.904Z,50.45
2018-12-19T16:14:46.403Z,53.45
2018-12-19T16:19:55.848Z,67.38
2018-12-19T16:25:05.360Z,67.60
2018-12-19T16:42:03.522Z,60.29
2018-12-19T16:47:02.632Z,54.05
2018-12-19T16:48:54.394Z,55.87
2018-12-19T16:53:53.723Z,49.75
2018-12-19T17:01:12.634Z,50.10
2018-12-19T17:06:11.867Z,50.92
2018-12-19T17:08:22.410Z,52.31
2018-12-19T17:10:28.330Z,47.38
2018-12-19T17:15:37.820Z,47.01
2018-12-19T17:22:47.508Z,46.70
2018-12-19T17:27:37.799Z,46.58
2018-12-19T17:36:31.994Z,38.76
2018-12-19T17:44:29.326Z,46.56
2018-12-19T17:49:28.620Z,40.93
2018-12-19T17:54:38.092Z,50.24
2018-12-19T17:59:47.838Z,48.35
2018-12-19T18:04:57.341Z,45.72
2018-12-19T18:10:06.926Z,79.55
2018-12-19T18:15:16.267Z,81.57
2018-12-19T18:20:26.010Z,74.83
2018-12-19T18:25:35.498Z,69.47
2018-12-19T18:30:45.282Z,81.52
2018-12-19T18:35:55.133Z,75.18
2018-12-19T18:41:05.173Z,73.44
2018-12-19T18:46:04.298Z,68.40
2018-12-19T18:49:40.990Z,64.73
2018-12-19T18:52:41.469Z,66.41
2018-12-19T18:55:09.711Z,74.74
2018-12-19T19:00:08.857Z,55.22
2018-12-19T19:05:18.466Z,48.65
2018-12-19T19:10:28.152Z,40.93
2018-12-19T19:15:37.560Z,39.72
2018-12-19T19:20:51.990Z,37.19
2018-12-19T19:25:51.342Z,40.84
2018-12-19T19:31:00.760Z,38.33
2018-12-19T19:36:10.361Z,38.04
2018-12-19T19:41:19.972Z,34.99
2018-12-19T19:46:29.661Z,36.14
2018-12-19T19:51:39.200Z,32.38
2018-12-19T19:56:48.734Z,33.49
2018-12-19T20:01:58.006Z,35.20
2018-12-19T20:07:07.501Z,34.98
2018-12-19T20:12:16.990Z,34.37
2018-12-19T20:17:26.750Z,33.70
2018-12-19T20:22:36.199Z,40.88
2018-12-19T20:27:45.870Z,36.91
2018-12-19T20:32:55.156Z,36.32
2018-12-19T20:38:04.795Z,34.68
2018-12-19T20:43:14.150Z,38.51
2018-12-19T20:48:23.731Z,30.77
2018-12-19T20:53:33.095Z,32.28
2018-12-19T20:58:45.407Z,27.82
2018-12-19T21:08:03.374Z,29.61
2018-12-19T21:11:38.987Z,28.66
2018-12-19T21:14:01.714Z,26.41
2018-12-19T21:19:02.073Z,28.37
2018-12-19T21:22:10.703Z,25.85
2018-12-19T21:27:00.992Z,29.03
2018-12-19T21:32:01.751Z,26.62
2018-12-19T21:37:02.190Z,32.60
2018-12-19T21:40:59.328Z,28.19
2018-12-19T21:44:50.526Z,27.88
2018-12-19T21:49:51.164Z,28.06
2018-12-19T21:54:51.885Z,30.32
2018-12-19T21:59:52.065Z,27.70
2018-12-19T22:04:52.865Z,28.33
2018-12-19T22:09:53.276Z,27.00
2018-12-19T22:14:53.876Z,31.54
2018-12-19T22:19:54.363Z,31.74
2018-12-19T22:24:55.347Z,33.23
2018-12-19T22:29:56.009Z,28.91
2018-12-19T22:34:56.509Z,27.58
2018-12-19T22:39:57.019Z,27.26
2018-12-19T22:44:58.110Z,26.42
2018-12-19T22:49:58.645Z,26.87
2018-12-19T22:54:59.128Z,26.60
2018-12-19T22:59:59.440Z,26.86
2018-12-19T23:04:59.077Z,26.62
2018-12-19T23:10:13.517Z,26.96
2018-12-19T23:15:14.314Z,26.06
2018-12-19T23:20:15.133Z,25.56
2018-12-19T23:25:15.447Z,23.58
2018-12-19T23:30:15.840Z,26.33
2018-12-19T23:35:16.209Z,23.48
2018-12-19T23:40:16.510Z,25.03
2018-12-19T23:45:17.383Z,24.03
2018-12-19T23:50:17.504Z,23.20
2018-12-19T23:55:18.062Z,22.16
